createdAt,value
2018-04-28T00:00:09.335Z,6.90
2018-04-28T00:00:43.211Z,7.28
2018-04-28T00:01:17.062Z,7.00
2018-04-28T00:01:50.939Z,7.10
2018-04-28T00:02:24.792Z,7.35
2018-04-28T00:02:59.835Z,7.10
2018-04-28T00:03:33.690Z,7.93
2018-04-28T00:04:07.569Z,7.43
2018-04-28T00:04:41.416Z,6.70
2018-04-28T00:05:15.285Z,7.53
2018-04-28T00:05:49.152Z,7.50
2018-04-28T00:06:23.016Z,7.07
2018-04-28T00:06:56.882Z,7.15
2018-04-28T00:07:30.743Z,8.18
2018-04-28T00:08:04.596Z,6.43
2018-04-28T00:08:39.396Z,7.43
2018-04-28T00:09:13.268Z,7.60
2018-04-28T00:09:47.114Z,7.35
2018-04-28T00:10:20.980Z,7.97
2018-04-28T00:10:54.841Z,7.57
2018-04-28T00:11:28.697Z,7.40
2018-04-28T00:12:02.547Z,7.60
2018-04-28T00:12:36.408Z,6.95
2018-04-28T00:13:10.315Z,7.47
2018-04-28T00:13:44.182Z,7.85
2018-04-28T00:14:18.125Z,7.62
2018-04-28T00:14:52.000Z,7.50
2018-04-28T00:15:25.875Z,7.70
2018-04-28T00:16:00.619Z,7.32
2018-04-28T00:16:40.367Z,7.72
2018-04-28T00:17:16.029Z,7.18
2018-04-28T00:17:50.095Z,7.60
2018-04-28T00:18:24.794Z,7.80
2018-04-28T00:19:00.579Z,7.22
2018-04-28T00:19:34.427Z,6.90
2018-04-28T00:20:08.284Z,7.62
2018-04-28T00:20:42.161Z,6.85
2018-04-28T00:21:16.051Z,7.43
2018-04-28T00:21:51.146Z,7.15
2018-04-28T00:22:25.004Z,7.62
2018-04-28T00:23:00.787Z,7.60
2018-04-28T00:23:40.453Z,8.18
2018-04-28T00:24:14.544Z,7.37
2018-04-28T00:24:54.383Z,6.68
2018-04-28T00:25:44.047Z,7.65
2018-04-28T00:26:17.948Z,7.22
2018-04-28T00:26:51.797Z,7.35
2018-04-28T00:27:25.646Z,7.30
2018-04-28T00:28:02.451Z,7.45
2018-04-28T00:28:41.202Z,7.80
2018-04-28T00:29:15.072Z,7.97
2018-04-28T00:29:49.707Z,7.03
2018-04-28T00:30:23.704Z,8.45
2018-04-28T00:31:03.480Z,8.30
2018-04-28T00:31:39.062Z,7.87
2018-04-28T00:32:12.922Z,7.50
2018-04-28T00:32:46.772Z,7.85
2018-04-28T00:33:21.465Z,7.20
2018-04-28T00:33:56.298Z,7.45
2018-04-28T00:34:39.400Z,7.95
2018-04-28T00:35:13.896Z,7.47
2018-04-28T00:36:02.673Z,7.53
2018-04-28T00:36:46.425Z,7.40
2018-04-28T00:37:30.196Z,7.10
2018-04-28T00:38:04.209Z,7.53
2018-04-28T00:38:54.807Z,6.57
2018-04-28T00:39:28.676Z,7.12
2018-04-28T00:40:21.223Z,7.47
2018-04-28T00:40:55.327Z,7.65
2018-04-28T00:41:32.082Z,7.55
2018-04-28T00:42:05.947Z,7.55
2018-04-28T00:42:39.884Z,7.37
2018-04-28T00:43:14.584Z,7.35
2018-04-28T00:43:48.436Z,7.80
2018-04-28T00:44:22.693Z,6.68
2018-04-28T00:44:56.553Z,7.20
2018-04-28T00:45:46.071Z,7.07
2018-04-28T00:46:22.544Z,8.48
2018-04-28T00:46:57.219Z,7.62
2018-04-28T00:47:31.114Z,7.20
2018-04-28T00:48:17.091Z,7.00
2018-04-28T00:48:52.803Z,7.40
2018-04-28T00:49:26.665Z,7.80
2018-04-28T00:50:02.351Z,8.10
2018-04-28T00:50:37.066Z,7.72
2018-04-28T00:51:14.625Z,7.87
2018-04-28T00:51:48.556Z,7.55
2018-04-28T00:52:22.431Z,7.70
2018-04-28T00:52:56.296Z,9.15
2018-04-28T00:53:30.135Z,7.78
2018-04-28T00:54:18.856Z,7.55
2018-04-28T00:54:56.516Z,7.32
2018-04-28T00:55:33.223Z,7.35
2018-04-28T00:56:08.892Z,8.38
2018-04-28T00:57:00.678Z,7.03
2018-04-28T00:57:52.331Z,7.65
2018-04-28T00:59:28.133Z,8.15
2018-04-28T01:00:16.882Z,7.40
2018-04-28T01:01:00.889Z,8.35
2018-04-28T01:01:35.472Z,8.07
2018-04-28T01:02:09.349Z,8.35
2018-04-28T01:02:43.244Z,8.00
2018-04-28T01:03:17.315Z,8.02
2018-04-28T01:03:51.760Z,8.30
2018-04-28T01:04:31.424Z,9.05
2018-04-28T01:05:05.289Z,7.90
2018-04-28T01:05:44.969Z,9.18
2018-04-28T01:06:18.832Z,8.05
2018-04-28T01:06:52.869Z,9.95
2018-04-28T01:07:26.727Z,9.00
2018-04-28T01:08:00.586Z,7.70
2018-04-28T01:08:34.457Z,8.10
2018-04-28T01:09:08.448Z,8.10
2018-04-28T01:09:42.301Z,7.97
2018-04-28T01:10:18.762Z,7.57
2018-04-28T01:10:54.416Z,7.97
2018-04-28T01:11:37.432Z,7.95
2018-04-28T01:12:11.287Z,7.72
2018-04-28T01:12:45.942Z,8.00
2018-04-28T01:13:19.795Z,8.85
2018-04-28T01:13:57.464Z,7.22
2018-04-28T01:14:37.078Z,8.13
2018-04-28T01:15:11.655Z,8.45
2018-04-28T01:15:45.521Z,8.38
2018-04-28T01:16:19.668Z,7.80
2018-04-28T01:16:53.563Z,9.15
2018-04-28T01:17:27.429Z,8.35
2018-04-28T01:18:01.789Z,8.88
2018-04-28T01:18:41.325Z,8.55
2018-04-28T01:19:21.018Z,8.10
2018-04-28T01:19:58.570Z,8.77
2018-04-28T01:20:34.165Z,8.75
2018-04-28T01:21:08.014Z,7.72
2018-04-28T01:21:42.047Z,8.60
2018-04-28T01:22:23.815Z,8.90
2018-04-28T01:23:03.958Z,8.15
2018-04-28T01:23:51.537Z,8.25
2018-04-28T01:24:26.321Z,8.52
2018-04-28T01:25:00.918Z,9.43
2018-04-28T01:25:36.739Z,8.40
2018-04-28T01:26:12.537Z,9.25
2018-04-28T01:26:52.304Z,7.95
2018-04-28T01:27:45.798Z,8.15
2018-04-28T01:28:20.993Z,8.60
2018-04-28T01:28:54.855Z,8.00
2018-04-28T01:29:28.716Z,8.13
2018-04-28T01:30:03.346Z,8.23
2018-04-28T01:30:37.140Z,9.32
2018-04-28T01:31:11.256Z,8.65
2018-04-28T01:32:00.051Z,8.05
2018-04-28T01:33:40.032Z,7.85
2018-04-28T01:34:15.825Z,8.63
2018-04-28T01:34:49.688Z,8.25
2018-04-28T01:35:23.541Z,8.73
2018-04-28T01:36:18.199Z,8.57
2018-04-28T01:37:09.791Z,8.80
2018-04-28T01:37:43.800Z,7.70
2018-04-28T01:38:19.371Z,7.90
2018-04-28T01:39:12.279Z,7.45
2018-04-28T01:39:49.915Z,7.75
2018-04-28T01:40:23.763Z,8.52
2018-04-28T01:41:17.718Z,8.63
2018-04-28T01:41:53.867Z,8.27
2018-04-28T01:42:48.322Z,7.90
2018-04-28T01:43:33.139Z,8.50
2018-04-28T01:44:07.924Z,8.10
2018-04-28T01:44:47.615Z,8.43
2018-04-28T01:45:36.365Z,8.73
2018-04-28T01:46:12.880Z,8.43
2018-04-28T01:46:46.747Z,8.15
2018-04-28T01:47:20.596Z,8.75
2018-04-28T01:48:09.334Z,9.13
2018-04-28T01:48:47.191Z,8.90
2018-04-28T01:49:25.853Z,8.13
2018-04-28T01:49:59.708Z,9.20
2018-04-28T01:50:37.656Z,8.88
2018-04-28T01:51:16.671Z,8.52
2018-04-28T01:51:51.186Z,9.40
2018-04-28T01:52:26.740Z,8.60
2018-04-28T01:53:00.814Z,8.07
2018-04-28T01:53:36.492Z,8.93
2018-04-28T01:54:26.934Z,7.82
2018-04-28T01:55:01.657Z,8.65
2018-04-28T01:55:38.272Z,9.02
2018-04-28T01:56:16.987Z,8.30
2018-04-28T01:56:56.603Z,8.88
2018-04-28T01:57:30.457Z,8.90
2018-04-28T01:58:09.887Z,9.40
2018-04-28T01:58:44.569Z,8.63
2018-04-28T01:59:21.578Z,9.00
2018-04-28T02:00:14.247Z,8.63
2018-04-28T02:00:55.168Z,8.73
2018-04-28T02:01:29.871Z,8.38
2018-04-28T02:02:07.407Z,9.13
2018-04-28T02:02:47.025Z,8.68
2018-04-28T02:03:22.448Z,8.77
2018-04-28T02:04:02.230Z,8.80
2018-04-28T02:04:36.928Z,9.48
2018-04-28T02:05:13.455Z,8.63
2018-04-28T02:05:49.219Z,8.93
2018-04-28T02:06:25.949Z,9.63
2018-04-28T02:07:02.702Z,9.00
2018-04-28T02:07:36.669Z,8.88
2018-04-28T02:08:12.169Z,9.57
2018-04-28T02:08:46.019Z,9.70
2018-04-28T02:09:20.805Z,8.90
2018-04-28T02:09:54.659Z,8.50
2018-04-28T02:10:34.179Z,8.20
2018-04-28T02:11:08.768Z,8.70
2018-04-28T02:11:42.650Z,8.93
2018-04-28T02:12:20.411Z,8.95
2018-04-28T02:12:57.155Z,9.05
2018-04-28T02:13:39.611Z,8.95
2018-04-28T02:14:19.376Z,9.95
2018-04-28T02:14:54.100Z,8.32
2018-04-28T02:15:29.852Z,9.20
2018-04-28T02:16:04.877Z,7.80
2018-04-28T02:16:38.888Z,9.02
2018-04-28T02:17:12.760Z,8.43
2018-04-28T02:17:47.408Z,9.45
2018-04-28T02:18:35.391Z,8.93
2018-04-28T02:19:09.982Z,9.00
2018-04-28T02:19:59.607Z,8.68
2018-04-28T02:20:37.173Z,9.20
2018-04-28T02:21:16.969Z,9.40
2018-04-28T02:21:56.801Z,8.95
2018-04-28T02:22:36.522Z,8.75
2018-04-28T02:23:10.423Z,8.60
2018-04-28T02:23:44.986Z,8.60
2018-04-28T02:24:34.408Z,8.20
2018-04-28T02:25:14.166Z,9.43
2018-04-28T02:25:49.845Z,7.90
2018-04-28T02:26:25.760Z,9.00
2018-04-28T02:27:05.523Z,9.10
2018-04-28T02:27:40.033Z,9.57
2018-04-28T02:28:13.882Z,9.52
2018-04-28T02:28:47.768Z,8.50
2018-04-28T02:29:27.541Z,9.25
2018-04-28T02:30:01.402Z,9.98
2018-04-28T02:30:41.253Z,9.27
2018-04-28T02:31:30.709Z,9.10
2018-04-28T02:32:06.444Z,8.60
2018-04-28T02:32:46.116Z,8.73
2018-04-28T02:33:20.800Z,8.82
2018-04-28T02:33:55.716Z,9.32
2018-04-28T02:34:29.577Z,8.80
2018-04-28T02:35:09.083Z,8.82
2018-04-28T02:35:42.946Z,8.77
2018-04-28T02:36:17.031Z,8.88
2018-04-28T02:37:00.962Z,8.70
2018-04-28T02:37:37.829Z,8.90
2018-04-28T02:38:14.692Z,8.77
2018-04-28T02:38:48.565Z,9.27
2018-04-28T02:39:37.305Z,10.30
2018-04-28T02:40:16.862Z,9.60
2018-04-28T02:41:02.237Z,9.52
2018-04-28T02:41:39.841Z,9.80
2018-04-28T02:42:13.699Z,9.20
2018-04-28T02:42:52.409Z,9.20
2018-04-28T02:43:29.272Z,9.55
2018-04-28T02:44:05.863Z,8.98
2018-04-28T02:44:44.564Z,9.98
2018-04-28T02:45:19.261Z,9.07
2018-04-28T02:45:53.984Z,8.90
2018-04-28T02:46:28.772Z,9.70
2018-04-28T02:47:03.560Z,9.05
2018-04-28T02:47:40.385Z,9.00
2018-04-28T02:48:20.175Z,9.30
2018-04-28T02:48:54.048Z,9.10
2018-04-28T02:49:29.675Z,9.35
2018-04-28T02:50:20.244Z,9.63
2018-04-28T02:50:56.954Z,9.30
2018-04-28T02:51:43.473Z,10.52
2018-04-28T02:52:33.244Z,9.30
2018-04-28T02:53:23.911Z,9.20
2018-04-28T02:53:57.792Z,9.68
2018-04-28T02:54:31.924Z,9.13
2018-04-28T02:55:06.634Z,8.95
2018-04-28T02:55:53.733Z,9.00
2018-04-28T02:56:33.399Z,8.85
2018-04-28T02:57:22.948Z,9.45
2018-04-28T02:57:56.812Z,9.30
2018-04-28T02:58:30.747Z,9.18
2018-04-28T02:59:16.396Z,10.77
2018-04-28T02:59:50.278Z,8.75
2018-04-28T03:00:24.861Z,9.20
2018-04-28T03:01:01.435Z,10.30
2018-04-28T03:01:40.169Z,9.65
2018-04-28T03:02:18.787Z,8.95
2018-04-28T03:02:52.636Z,8.75
2018-04-28T03:03:26.565Z,9.75
2018-04-28T03:04:01.316Z,9.45
2018-04-28T03:04:35.864Z,8.88
2018-04-28T03:05:14.551Z,8.77
2018-04-28T03:05:48.498Z,9.77
2018-04-28T03:06:23.206Z,8.60
2018-04-28T03:06:59.827Z,9.07
2018-04-28T03:07:36.841Z,8.80
2018-04-28T03:08:16.504Z,9.30
2018-04-28T03:08:50.567Z,9.13
2018-04-28T03:09:25.388Z,9.30
2018-04-28T03:10:01.099Z,9.20
2018-04-28T03:10:34.958Z,9.90
2018-04-28T03:11:09.620Z,9.90
2018-04-28T03:11:43.476Z,8.55
2018-04-28T03:12:18.142Z,9.57
2018-04-28T03:12:52.076Z,9.48
2018-04-28T03:13:27.929Z,9.18
2018-04-28T03:14:01.820Z,9.02
2018-04-28T03:14:36.537Z,8.77
2018-04-28T03:15:10.411Z,9.90
2018-04-28T03:15:44.281Z,9.07
2018-04-28T03:16:24.017Z,9.82
2018-04-28T03:16:59.595Z,9.60
2018-04-28T03:17:39.380Z,8.85
2018-04-28T03:18:13.246Z,9.23
2018-04-28T03:18:47.866Z,9.32
2018-04-28T03:19:21.713Z,9.27
2018-04-28T03:19:55.562Z,9.10
2018-04-28T03:20:29.466Z,9.50
2018-04-28T03:21:03.314Z,8.98
2018-04-28T03:21:37.153Z,9.32
2018-04-28T03:22:11.156Z,9.85
2018-04-28T03:22:45.991Z,9.50
2018-04-28T03:23:20.889Z,9.80
2018-04-28T03:23:58.776Z,8.60
2018-04-28T03:24:38.432Z,9.32
2018-04-28T03:25:13.005Z,8.98
2018-04-28T03:25:46.880Z,9.20
2018-04-28T03:26:21.021Z,8.25
2018-04-28T03:26:56.856Z,9.88
2018-04-28T03:27:46.623Z,10.45
2018-04-28T03:28:22.218Z,9.95
2018-04-28T03:28:56.791Z,9.15
2018-04-28T03:29:30.771Z,9.30
2018-04-28T03:30:05.418Z,9.88
2018-04-28T03:30:39.988Z,9.80
2018-04-28T03:31:14.044Z,9.55
2018-04-28T03:31:48.689Z,9.75
2018-04-28T03:32:28.445Z,9.65
2018-04-28T03:33:17.190Z,9.02
2018-04-28T03:34:11.948Z,9.25
2018-04-28T03:35:42.927Z,8.75
2018-04-28T03:36:19.548Z,10.27
2018-04-28T03:36:59.402Z,9.43
2018-04-28T03:37:47.217Z,9.80
2018-04-28T03:38:21.076Z,10.40
2018-04-28T03:38:54.967Z,9.38
2018-04-28T03:39:28.830Z,9.20
2018-04-28T03:40:13.404Z,10.57
2018-04-28T03:40:56.841Z,9.35
2018-04-28T03:41:30.704Z,8.88
2018-04-28T03:42:08.334Z,9.32
2018-04-28T03:42:57.086Z,10.05
2018-04-28T03:43:30.947Z,8.60
2018-04-28T03:44:15.511Z,10.15
2018-04-28T03:44:51.121Z,9.45
2018-04-28T03:45:24.976Z,8.85
2018-04-28T03:46:04.556Z,9.52
2018-04-28T03:46:44.279Z,10.38
2018-04-28T03:47:37.952Z,8.98
2018-04-28T03:48:12.996Z,9.93
2018-04-28T03:48:55.163Z,8.88
2018-04-28T03:49:29.189Z,9.05
2018-04-28T03:50:03.049Z,10.10
2018-04-28T03:50:36.913Z,10.90
2018-04-28T03:51:12.599Z,10.02
2018-04-28T03:51:46.475Z,10.63
2018-04-28T03:52:21.045Z,9.95
2018-04-28T03:53:09.784Z,9.60
2018-04-28T03:53:59.451Z,9.25
2018-04-28T03:54:34.043Z,10.35
2018-04-28T03:55:07.907Z,9.45
2018-04-28T03:55:41.772Z,9.25
2018-04-28T03:56:16.549Z,8.95
2018-04-28T03:56:53.333Z,9.90
2018-04-28T03:57:33.037Z,10.90
2018-04-28T03:58:12.636Z,9.15
2018-04-28T03:58:52.400Z,9.32
2018-04-28T03:59:32.047Z,8.25
2018-04-28T04:00:11.716Z,10.15
2018-04-28T04:00:51.497Z,9.13
2018-04-28T04:01:31.125Z,10.07
2018-04-28T04:02:10.757Z,10.10
2018-04-28T04:02:50.492Z,10.43
2018-04-28T04:03:24.789Z,9.95
2018-04-28T04:03:59.427Z,10.23
2018-04-28T04:04:33.277Z,9.70
2018-04-28T04:05:07.203Z,10.10
2018-04-28T04:05:43.689Z,9.57
2018-04-28T04:06:20.658Z,9.32
2018-04-28T04:06:54.507Z,9.18
2018-04-28T04:07:44.167Z,9.77
2018-04-28T04:08:35.075Z,10.50
2018-04-28T04:09:09.820Z,10.02
2018-04-28T04:09:44.621Z,9.63
2018-04-28T04:10:22.249Z,10.45
2018-04-28T04:10:56.862Z,10.25
2018-04-28T04:11:36.660Z,10.30
2018-04-28T04:12:16.435Z,10.50
2018-04-28T04:12:56.111Z,10.00
2018-04-28T04:13:38.752Z,10.23
2018-04-28T04:14:27.500Z,10.55
2018-04-28T04:15:01.633Z,9.88
2018-04-28T04:15:41.272Z,9.20
2018-04-28T04:16:19.980Z,10.07
2018-04-28T04:16:58.575Z,9.25
2018-04-28T04:17:35.303Z,9.95
2018-04-28T04:18:09.997Z,10.60
2018-04-28T04:18:44.482Z,9.25
2018-04-28T04:19:38.002Z,10.40
2018-04-28T04:20:28.515Z,9.70
2018-04-28T04:21:03.240Z,9.82
2018-04-28T04:21:51.976Z,9.93
2018-04-28T04:22:30.832Z,10.95
2018-04-28T04:23:10.528Z,9.98
2018-04-28T04:23:47.975Z,10.73
2018-04-28T04:24:31.756Z,10.00
2018-04-28T04:25:05.625Z,10.63
2018-04-28T04:25:45.402Z,9.68
2018-04-28T04:26:22.108Z,10.38
2018-04-28T04:27:10.862Z,10.30
2018-04-28T04:27:46.520Z,11.95
2018-04-28T04:28:21.237Z,10.48
2018-04-28T04:28:56.892Z,9.52
2018-04-28T04:29:47.531Z,9.40
2018-04-28T04:30:21.397Z,10.95
2018-04-28T04:31:11.053Z,10.65
2018-04-28T04:31:58.668Z,10.90
2018-04-28T04:32:32.520Z,9.65
2018-04-28T04:33:22.171Z,10.23
2018-04-28T04:33:58.016Z,10.30
2018-04-28T04:34:46.769Z,10.23
2018-04-28T04:35:23.304Z,10.82
2018-04-28T04:35:58.080Z,11.00
2018-04-28T04:36:34.855Z,10.23
2018-04-28T04:37:08.781Z,9.95
2018-04-28T04:37:44.642Z,9.90
2018-04-28T04:38:21.383Z,11.48
2018-04-28T04:38:56.041Z,10.52
2018-04-28T04:39:29.901Z,10.68
2018-04-28T04:40:09.574Z,10.10
2018-04-28T04:40:45.110Z,9.85
2018-04-28T04:41:22.126Z,10.90
2018-04-28T04:42:01.927Z,10.90
2018-04-28T04:42:51.387Z,10.20
2018-04-28T04:43:30.956Z,10.20
2018-04-28T04:44:04.829Z,10.57
2018-04-28T04:44:42.559Z,10.93
2018-04-28T04:45:19.130Z,10.80
2018-04-28T04:46:12.848Z,10.48
2018-04-28T04:46:46.695Z,10.25
2018-04-28T04:47:26.368Z,10.75
2018-04-28T04:49:20.271Z,10.18
2018-04-28T04:49:55.017Z,9.88
2018-04-28T04:50:38.787Z,9.23
2018-04-28T04:51:17.381Z,11.27
2018-04-28T04:51:52.211Z,12.07
2018-04-28T04:52:29.993Z,10.75
2018-04-28T04:53:09.737Z,9.90
2018-04-28T04:53:49.475Z,9.48
2018-04-28T04:54:23.362Z,10.05
2018-04-28T04:55:12.923Z,9.90
2018-04-28T04:57:01.979Z,8.73
2018-04-28T04:58:55.147Z,9.48
2018-04-28T04:59:34.995Z,8.65
2018-04-28T05:00:27.832Z,9.50
2018-04-28T05:01:11.589Z,9.38
2018-04-28T05:01:51.244Z,8.88
2018-04-28T05:02:35.011Z,9.15
2018-04-28T05:03:14.844Z,9.45
2018-04-28T05:03:54.528Z,9.60
2018-04-28T05:04:45.973Z,9.43
2018-04-28T05:05:25.715Z,9.90
2018-04-28T05:06:05.368Z,9.52
2018-04-28T05:06:43.072Z,8.85
2018-04-28T05:07:22.777Z,9.15
2018-04-28T05:07:59.379Z,9.23
2018-04-28T05:08:48.453Z,8.55
2018-04-28T05:09:24.129Z,9.25
2018-04-28T05:09:57.999Z,9.77
2018-04-28T05:10:31.874Z,9.00
2018-04-28T05:11:11.587Z,9.80
2018-04-28T05:11:54.055Z,9.35
2018-04-28T05:12:28.672Z,9.40
2018-04-28T05:13:04.446Z,8.60
2018-04-28T05:13:41.968Z,9.45
2018-04-28T05:14:31.502Z,9.48
2018-04-28T05:15:11.261Z,9.68
2018-04-28T05:15:45.130Z,8.68
2018-04-28T05:16:19.843Z,8.77
2018-04-28T05:17:09.516Z,9.30
2018-04-28T05:18:02.256Z,9.60
2018-04-28T05:18:41.941Z,8.57
2018-04-28T05:19:17.937Z,8.65
2018-04-28T05:20:11.689Z,8.82
2018-04-28T05:20:51.495Z,8.55
2018-04-28T05:21:31.132Z,9.25
2018-04-28T05:22:24.566Z,9.05
2018-04-28T05:23:13.340Z,8.95
2018-04-28T05:23:53.182Z,9.45
2018-04-28T05:24:28.940Z,9.23
2018-04-28T05:25:06.712Z,9.80
2018-04-28T05:25:46.655Z,8.30
2018-04-28T05:26:25.332Z,8.98
2018-04-28T05:27:04.899Z,9.75
2018-04-28T05:27:44.526Z,9.02
2018-04-28T05:28:24.445Z,8.98
2018-04-28T05:29:19.437Z,8.55
2018-04-28T05:29:55.081Z,9.75
2018-04-28T05:30:30.824Z,7.93
2018-04-28T05:31:07.685Z,8.45
2018-04-28T05:31:41.546Z,7.93
2018-04-28T05:32:33.999Z,8.20
2018-04-28T05:33:09.671Z,9.25
2018-04-28T05:34:00.272Z,9.02
2018-04-28T05:34:50.868Z,8.25
2018-04-28T05:35:28.463Z,8.55
2018-04-28T05:37:03.073Z,8.38
2018-04-28T05:37:37.844Z,8.60
2018-04-28T05:38:17.449Z,8.20
2018-04-28T05:38:53.200Z,9.00
2018-04-28T05:39:33.807Z,7.72
2018-04-28T05:40:13.575Z,7.82
2018-04-28T05:40:53.166Z,8.00
2018-04-28T05:41:32.800Z,7.90
2018-04-28T05:42:07.459Z,7.62
2018-04-28T05:42:47.108Z,8.10
2018-04-28T05:43:23.677Z,8.57
2018-04-28T05:44:03.336Z,8.57
2018-04-28T05:44:43.167Z,8.70
2018-04-28T05:45:22.865Z,8.73
2018-04-28T05:46:02.532Z,8.95
2018-04-28T05:46:51.311Z,7.97
2018-04-28T05:47:28.181Z,7.90
2018-04-28T05:48:07.804Z,8.40
2018-04-28T05:48:58.374Z,7.93
2018-04-28T05:49:34.871Z,8.15
2018-04-28T05:50:14.671Z,8.82
2018-04-28T05:50:48.526Z,7.95
2018-04-28T05:51:28.320Z,8.23
2018-04-28T05:52:19.959Z,8.10
2018-04-28T05:53:10.596Z,8.15
2018-04-28T05:54:52.096Z,8.35
2018-04-28T05:55:40.831Z,7.78
2018-04-28T05:56:20.491Z,8.30
2018-04-28T05:58:11.851Z,8.05
2018-04-28T05:58:51.413Z,7.85
2018-04-28T05:59:35.922Z,8.82
2018-04-28T06:00:27.671Z,8.45
2018-04-28T06:01:07.352Z,7.95
2018-04-28T06:01:41.964Z,8.45
2018-04-28T06:02:16.525Z,8.45
2018-04-28T06:02:54.422Z,9.25
2018-04-28T06:03:29.183Z,7.95
2018-04-28T06:04:08.860Z,8.55
2018-04-28T06:04:45.525Z,7.87
2018-04-28T06:05:33.118Z,7.47
2018-04-28T06:06:12.918Z,8.05
2018-04-28T06:06:46.787Z,8.52
2018-04-28T06:07:40.294Z,7.82
2018-04-28T06:08:18.021Z,8.18
2018-04-28T06:08:57.534Z,7.45
2018-04-28T06:09:49.256Z,8.05
2018-04-28T06:10:28.924Z,7.93
2018-04-28T06:11:02.877Z,8.52
2018-04-28T06:11:40.630Z,8.50
2018-04-28T06:12:30.207Z,7.82
2018-04-28T06:13:05.902Z,8.40
2018-04-28T06:13:41.499Z,7.82
2018-04-28T06:14:35.069Z,8.07
2018-04-28T06:15:14.673Z,8.77
2018-04-28T06:16:37.843Z,8.30
2018-04-28T06:17:12.423Z,8.35
2018-04-28T06:18:05.003Z,8.20
2018-04-28T06:18:43.865Z,7.93
2018-04-28T06:19:32.685Z,8.93
2018-04-28T06:20:23.736Z,8.00
2018-04-28T06:20:57.608Z,8.00
2018-04-28T06:21:31.463Z,8.02
2018-04-28T06:22:05.426Z,9.13
2018-04-28T06:22:39.418Z,8.25
2018-04-28T06:23:13.285Z,9.27
2018-04-28T06:23:47.353Z,8.30
2018-04-28T06:24:21.409Z,9.02
2018-04-28T06:24:55.272Z,8.80
2018-04-28T06:25:29.667Z,7.80
2018-04-28T06:26:03.837Z,8.82
2018-04-28T06:26:37.692Z,8.75
2018-04-28T06:27:11.559Z,8.25
2018-04-28T06:27:45.501Z,8.50
2018-04-28T06:28:19.866Z,8.18
2018-04-28T06:28:53.713Z,8.00
2018-04-28T06:29:27.576Z,7.72
2018-04-28T06:30:01.432Z,7.80
2018-04-28T06:30:35.308Z,9.15
2018-04-28T06:31:09.182Z,8.15
2018-04-28T06:31:43.086Z,8.93
2018-04-28T06:32:16.951Z,9.60
2018-04-28T06:32:50.805Z,8.45
2018-04-28T06:33:24.651Z,8.52
2018-04-28T06:33:58.511Z,9.00
2018-04-28T06:34:32.375Z,9.43
2018-04-28T06:35:06.247Z,8.43
2018-04-28T06:35:40.180Z,7.95
2018-04-28T06:36:14.054Z,8.65
2018-04-28T06:36:48.034Z,8.50
2018-04-28T06:37:21.883Z,7.90
2018-04-28T06:37:55.821Z,7.97
2018-04-28T06:38:29.716Z,8.32
2018-04-28T06:39:03.571Z,8.23
2018-04-28T06:39:37.443Z,8.65
2018-04-28T06:40:11.400Z,7.75
2018-04-28T06:40:45.288Z,8.10
2018-04-28T06:41:19.205Z,8.35
2018-04-28T06:41:53.090Z,7.50
2018-04-28T06:42:26.939Z,8.15
2018-04-28T06:43:00.814Z,8.15
2018-04-28T06:43:35.848Z,8.40
2018-04-28T06:44:09.695Z,8.70
2018-04-28T06:44:43.996Z,9.48
2018-04-28T06:45:18.076Z,8.73
2018-04-28T06:45:51.888Z,8.43
2018-04-28T06:46:25.891Z,7.40
2018-04-28T06:46:59.791Z,8.18
2018-04-28T06:47:33.785Z,8.07
2018-04-28T06:48:07.651Z,8.60
2018-04-28T06:48:41.677Z,7.90
2018-04-28T06:49:15.545Z,7.80
2018-04-28T06:49:49.664Z,8.80
2018-04-28T06:50:23.668Z,7.57
2018-04-28T06:50:57.706Z,7.12
2018-04-28T06:51:31.568Z,8.10
2018-04-28T06:52:05.668Z,7.95
2018-04-28T06:52:39.547Z,8.10
2018-04-28T06:53:13.485Z,7.45
2018-04-28T06:53:47.358Z,7.43
2018-04-28T06:54:21.335Z,7.72
2018-04-28T06:54:55.206Z,7.60
2018-04-28T06:55:29.072Z,7.53
2018-04-28T06:56:02.952Z,7.75
2018-04-28T06:56:36.816Z,8.00
2018-04-28T06:57:10.722Z,7.50
2018-04-28T06:57:44.577Z,8.55
2018-04-28T06:58:18.615Z,7.32
2018-04-28T06:58:52.679Z,8.13
2018-04-28T06:59:26.531Z,8.20
2018-04-28T07:00:00.400Z,7.70
2018-04-28T07:00:35.495Z,9.25
2018-04-28T07:01:09.461Z,7.75
2018-04-28T07:01:43.315Z,7.18
2018-04-28T07:02:17.875Z,7.32
2018-04-28T07:02:51.727Z,7.45
2018-04-28T07:03:25.581Z,7.35
2018-04-28T07:03:59.449Z,7.78
2018-04-28T07:04:33.378Z,7.70
2018-04-28T07:05:07.223Z,7.00
2018-04-28T07:05:41.088Z,7.85
2018-04-28T07:06:15.031Z,7.68
2018-04-28T07:06:48.902Z,8.40
2018-04-28T07:07:22.756Z,7.32
2018-04-28T07:07:57.176Z,8.55
2018-04-28T07:08:31.172Z,8.45
2018-04-28T07:09:05.036Z,7.80
2018-04-28T07:09:38.897Z,7.15
2018-04-28T07:10:12.756Z,7.12
2018-04-28T07:10:46.599Z,8.30
2018-04-28T07:11:20.761Z,7.37
2018-04-28T07:11:54.675Z,8.23
2018-04-28T07:12:28.586Z,8.23
2018-04-28T07:13:03.701Z,8.30
2018-04-28T07:13:37.732Z,7.90
2018-04-28T07:14:13.243Z,7.32
2018-04-28T07:14:47.230Z,7.72
2018-04-28T07:15:21.341Z,7.62
2018-04-28T07:15:55.410Z,8.10
2018-04-28T07:16:30.012Z,6.45
2018-04-28T07:17:03.881Z,6.95
2018-04-28T07:17:38.239Z,7.93
2018-04-28T07:18:12.103Z,7.20
2018-04-28T07:18:46.219Z,7.50
2018-04-28T07:19:20.125Z,6.60
2018-04-28T07:19:54.813Z,7.32
2018-04-28T07:20:29.224Z,7.15
2018-04-28T07:21:03.370Z,8.52
2018-04-28T07:21:38.750Z,7.57
2018-04-28T07:22:12.618Z,7.95
2018-04-28T07:22:47.072Z,6.97
2018-04-28T07:23:22.154Z,7.55
2018-04-28T07:23:56.019Z,7.40
2018-04-28T07:24:29.903Z,7.10
2018-04-28T07:25:03.785Z,7.50
2018-04-28T07:25:37.682Z,6.65
2018-04-28T07:26:11.532Z,6.82
2018-04-28T07:26:45.466Z,7.43
2018-04-28T07:27:19.691Z,7.10
2018-04-28T07:27:53.581Z,6.97
2018-04-28T07:28:27.464Z,7.28
2018-04-28T07:29:01.338Z,6.90
2018-04-28T07:29:35.199Z,7.53
2018-04-28T07:30:09.055Z,7.10
2018-04-28T07:30:42.900Z,6.40
2018-04-28T07:31:16.753Z,7.72
2018-04-28T07:31:50.622Z,7.10
2018-04-28T07:32:24.791Z,7.55
2018-04-28T07:32:58.676Z,8.15
2018-04-28T07:33:32.524Z,7.28
2018-04-28T07:34:06.401Z,7.60
2018-04-28T07:34:40.401Z,7.28
2018-04-28T07:35:14.339Z,7.18
2018-04-28T07:35:48.511Z,8.15
2018-04-28T07:36:22.364Z,6.55
2018-04-28T07:36:56.219Z,7.25
2018-04-28T07:37:30.554Z,6.72
2018-04-28T07:38:04.591Z,7.85
2018-04-28T07:38:41.180Z,6.60
2018-04-28T07:39:15.125Z,6.85
2018-04-28T07:39:48.975Z,7.30
2018-04-28T07:40:22.833Z,6.93
2018-04-28T07:40:57.195Z,6.82
2018-04-28T07:41:31.359Z,6.75
2018-04-28T07:42:05.234Z,6.90
2018-04-28T07:42:39.238Z,6.72
2018-04-28T07:43:13.137Z,7.22
2018-04-28T07:43:47.001Z,7.57
2018-04-28T07:44:20.846Z,7.10
2018-04-28T07:44:54.837Z,7.00
2018-04-28T07:45:28.704Z,6.62
2018-04-28T07:46:02.567Z,6.80
2018-04-28T07:46:37.403Z,7.22
2018-04-28T07:47:11.284Z,6.20
2018-04-28T07:47:45.153Z,6.75
2018-04-28T07:48:19.017Z,6.60
2018-04-28T07:48:52.918Z,7.35
2018-04-28T07:49:26.795Z,8.75
2018-04-28T07:50:02.807Z,8.30
2018-04-28T07:50:39.312Z,7.22
2018-04-28T07:51:14.989Z,6.28
2018-04-28T07:51:50.993Z,6.55
2018-04-28T07:52:25.313Z,6.35
2018-04-28T07:53:02.659Z,6.25
2018-04-28T07:53:37.990Z,6.55
2018-04-28T07:54:12.753Z,5.97
2018-04-28T07:54:49.237Z,6.97
2018-04-28T07:55:24.215Z,6.32
2018-04-28T07:55:59.643Z,6.32
2018-04-28T07:56:33.790Z,6.70
2018-04-28T07:57:07.918Z,6.15
2018-04-28T07:57:41.892Z,7.62
2018-04-28T07:58:15.768Z,6.82
2018-04-28T07:58:50.344Z,7.12
2018-04-28T07:59:24.327Z,6.40
2018-04-28T07:59:58.545Z,6.20
2018-04-28T08:00:32.399Z,6.20
2018-04-28T08:01:06.316Z,7.05
2018-04-28T08:01:40.215Z,6.95
2018-04-28T08:02:14.104Z,6.18
2018-04-28T08:02:48.003Z,6.65
2018-04-28T08:03:21.883Z,6.80
2018-04-28T08:03:55.752Z,6.50
2018-04-28T08:04:29.629Z,6.05
2018-04-28T08:05:03.507Z,6.65
2018-04-28T08:05:37.487Z,6.72
2018-04-28T08:06:11.349Z,6.50
2018-04-28T08:06:45.272Z,6.57
2018-04-28T08:07:19.265Z,6.45
2018-04-28T08:07:53.144Z,6.00
2018-04-28T08:08:27.005Z,5.65
2018-04-28T08:09:00.950Z,5.87
2018-04-28T08:09:34.803Z,6.45
2018-04-28T08:10:08.680Z,6.10
2018-04-28T08:10:42.557Z,5.90
2018-04-28T08:11:16.423Z,5.95
2018-04-28T08:11:50.276Z,5.60
2018-04-28T08:12:24.432Z,5.53
2018-04-28T08:12:58.530Z,6.00
2018-04-28T08:13:32.522Z,5.55
2018-04-28T08:14:06.368Z,5.80
2018-04-28T08:14:40.413Z,5.70
2018-04-28T08:15:14.376Z,5.65
2018-04-28T08:15:48.195Z,5.80
2018-04-28T08:16:22.074Z,5.78
2018-04-28T08:16:55.943Z,6.57
2018-04-28T08:17:30.108Z,6.25
2018-04-28T08:18:03.969Z,5.45
2018-04-28T08:18:37.830Z,6.00
2018-04-28T08:19:11.707Z,5.65
2018-04-28T08:19:45.573Z,6.07
2018-04-28T08:20:19.422Z,6.25
2018-04-28T08:20:54.254Z,6.10
2018-04-28T08:21:28.131Z,6.65
2018-04-28T08:22:02.023Z,5.82
2018-04-28T08:22:35.869Z,5.80
2018-04-28T08:23:09.746Z,6.90
2018-04-28T08:23:43.597Z,5.70
2018-04-28T08:24:17.528Z,6.05
2018-04-28T08:24:51.555Z,6.05